Kitanomaru — JD2835 — position and weather

sailwx.info

Track history (hours):
 
Tides and Currents Weather Stations Pressure Air Temp Water Temp Dewpoint Dewpoint Depression Visibility Wind Speed Wind Dir Waves Ship Positions

Kitanomaru

Last reported at 2014-Jul-31 06:32 UTC. Time now 2014-Jul-31 07:25 UTC.
Position N 35°36' E 140°07'.

Length 39 m; draft 4 m.

Type: Tug. MMSI: 431000773.

Date/timePositionNaut miles runAvg speedWind from/ knotsBaromVisibWave heightAir tempDewpointWater temp
2014-Jul-31 06:32N 35°36' E 140°07'0 0.0
2014-Jul-31 05:33N 35°36' E 140°07'1 1.3
2014-Jul-31 04:33N 35°36' E 140°05'1 0.6
2014-Jul-31 03:33N 35°36' E 140°05'1 1.4
2014-Jul-31 02:34N 35°35' E 140°05'1 1.5
2014-Jul-31 01:33N 35°34' E 140°03'6 5.6
2014-Jul-31 00:33N 35°29' E 140°00'6 5.5
2014-Jul-30 23:34N 35°32' E 140°05'5 5.0
2014-Jul-30 22:33N 35°31' E 139°60'3 3.4
2014-Jul-30 21:33N 35°33' E 140°02'4 4.5
2014-Jul-30 20:33N 35°36' E 140°07'0 0.0
2014-Jul-30 19:33N 35°36' E 140°07'0 0.0
2014-Jul-30 18:33N 35°36' E 140°07'0 0.0
2014-Jul-30 17:34N 35°36' E 140°07'0 0.0
2014-Jul-30 16:34N 35°36' E 140°07'0 0.0
2014-Jul-30 15:33N 35°36' E 140°07'0 0.0
2014-Jul-30 14:33N 35°36' E 140°07'0 0.0
2014-Jul-30 13:33N 35°36' E 140°07'0 0.0
2014-Jul-30 12:33N 35°36' E 140°07'0 0.0
2014-Jul-30 11:33N 35°36' E 140°07'0 0.0
2014-Jul-30 10:33N 35°36' E 140°07'0 0.0
2014-Jul-30 09:33N 35°36' E 140°07'0 0.0
2014-Jul-30 08:33N 35°36' E 140°07'0 0.0
2014-Jul-30 07:33N 35°36' E 140°07'1 0.8
2014-Jul-30 06:33N 35°35' E 140°06'0 0.3
2014-Jul-30 05:33N 35°35' E 140°06'2 1.9
2014-Jul-30 04:33N 35°35' E 140°04'6 6.1
2014-Jul-30 03:33N 35°32' E 139°58'1 1.0
2014-Jul-30 02:33N 35°32' E 139°56'9 9.0
2014-Jul-30 01:34N 35°36' E 140°07'0 0.2
2014-Jul-30 00:33N 35°36' E 140°07'0 0.0
2014-Jul-29 23:33N 35°36' E 140°07'0 0.0
2014-Jul-29 22:34N 35°36' E 140°07'0 0.0
2014-Jul-29 21:33N 35°36' E 140°07'0 0.0
2014-Jul-29 20:33N 35°36' E 140°07'0 0.0
2014-Jul-29 19:33N 35°36' E 140°07'0 0.0
2014-Jul-29 18:33N 35°36' E 140°07'0 0.0
2014-Jul-29 17:33N 35°36' E 140°07'0 0.0
2014-Jul-29 16:33N 35°36' E 140°07'0 0.0
2014-Jul-29 15:34N 35°36' E 140°07'0 0.0
2014-Jul-29 14:33N 35°36' E 140°07'0 0.0
2014-Jul-29 13:34N 35°36' E 140°07'0 0.0
2014-Jul-29 12:33N 35°36' E 140°07'0 0.0
2014-Jul-29 11:33N 35°36' E 140°07'0 0.0
2014-Jul-29 10:33N 35°36' E 140°07'0 0.0
2014-Jul-29 09:33N 35°36' E 140°07'0 0.0
2014-Jul-29 08:33N 35°36' E 140°07'0 0.0
2014-Jul-29 07:33N 35°36' E 140°07'1 1.2
2014-Jul-29 06:33N 35°36' E 140°05'10 9.9
2014-Jul-29 05:33N 35°28' E 139°58'0 0.0
2014-Jul-29 04:33N 35°28' E 139°58'2 2.1
2014-Jul-29 03:34N 35°30' E 139°56'5 4.7
2014-Jul-29 02:33N 35°33' E 140°00'6 6.1
2014-Jul-29 01:33N 35°36' E 140°07'0 0.0
2014-Jul-29 00:33N 35°36' E 140°07'0 0.0
2014-Jul-28 23:33N 35°36' E 140°07'2 1.6
2014-Jul-28 22:33N 35°36' E 140°05'1 1.4
2014-Jul-28 21:33N 35°35' E 140°04'0 0.0
2014-Jul-28 20:33N 35°35' E 140°04'2 2.0
2014-Jul-28 19:33N 35°36' E 140°07'0 0.0
2014-Jul-28 18:33N 35°36' E 140°07'0 0.0
2014-Jul-28 17:33N 35°36' E 140°07'0 0.0
2014-Jul-28 16:33N 35°36' E 140°07'0 0.0
2014-Jul-28 15:33N 35°36' E 140°07'0 0.0
2014-Jul-28 14:33N 35°36' E 140°07'0 0.0
2014-Jul-28 13:33N 35°36' E 140°07'0 0.0
2014-Jul-28 12:33N 35°36' E 140°07'0 0.0
2014-Jul-28 11:33N 35°36' E 140°07'0 0.0
2014-Jul-28 10:33N 35°36' E 140°07'0 0.0
2014-Jul-28 09:33N 35°36' E 140°07'0 0.0
2014-Jul-28 08:33N 35°36' E 140°07'5 4.8
2014-Jul-28 07:34N 35°32' E 140°03'5 5.1
2014-Jul-28 06:33N 35°32' E 139°57'2 2.4
2014-Jul-28 05:33N 35°29' E 139°58'1 1.0
2014-Jul-28 04:33N 35°28' E 139°58'3 2.7
2014-Jul-28 03:33N 35°30' E 139°55'6 5.5
2014-Jul-28 02:33N 35°33' E 140°00'6 6.1
2014-Jul-28 01:33N 35°36' E 140°07'0 0.0
2014-Jul-27 06:31N 35°36' E 140°07'0 0.0
2014-Jul-27 05:34N 35°36' E 140°07'0 0.0
2014-Jul-27 04:33N 35°36' E 140°07'0 0.0
2014-Jul-27 03:33N 35°36' E 140°07'0 0.0
2014-Jul-27 02:33N 35°36' E 140°07'0 0.0
2014-Jul-27 01:33N 35°36' E 140°07'0 0.0
2014-Jul-27 00:33N 35°36' E 140°07'0 0.0
2014-Jul-26 23:33N 35°36' E 140°07'0 0.0
2014-Jul-26 22:33N 35°36' E 140°07'0 0.0
2014-Jul-26 21:33N 35°36' E 140°07'0 0.0
2014-Jul-26 20:33N 35°36' E 140°07'0 0.0
2014-Jul-26 19:33N 35°36' E 140°07'0 0.0
2014-Jul-26 18:33N 35°36' E 140°07'0 0.0
2014-Jul-26 17:33N 35°36' E 140°07'0 0.0
2014-Jul-26 16:33N 35°36' E 140°07'0 0.0
2014-Jul-26 15:33N 35°36' E 140°07'0 0.0
2014-Jul-26 14:33N 35°36' E 140°07'0 0.0
2014-Jul-26 13:33N 35°36' E 140°07'1 1.1
2014-Jul-26 12:33N 35°36' E 140°06'0 0.1
2014-Jul-26 11:33N 35°36' E 140°06'0 0.2
2014-Jul-26 10:33N 35°36' E 140°06'1 0.8
2014-Jul-26 09:33N 35°36' E 140°07'0 0.0
2014-Jul-26 08:34N 35°36' E 140°07'0 0.0
2014-Jul-26 07:33N 35°36' E 140°07'0 0.0
2014-Jul-26 06:33N 35°36' E 140°07'0 0.0
2014-Jul-26 05:33N 35°36' E 140°07'1 0.9
2014-Jul-26 04:33N 35°35' E 140°06'1 0.9
2014-Jul-26 03:33N 35°36' E 140°07'0 0.0
2014-Jul-26 02:33N 35°36' E 140°07'1 1.1
2014-Jul-26 01:34N 35°35' E 140°06'7 7.3
2014-Jul-26 00:33N 35°34' E 139°57'7 6.8
2014-Jul-25 23:34N 35°36' E 140°05'1 0.7
2014-Jul-25 22:33N 35°36' E 140°05'5 4.8
2014-Jul-25 21:33N 35°34' E 140°00'1 1.3
2014-Jul-25 20:33N 35°34' E 140°02'5 4.5
2014-Jul-25 19:33N 35°36' E 140°07'0 0.0
2014-Jul-25 18:33N 35°36' E 140°07'0 0.0
2014-Jul-25 17:33N 35°36' E 140°07'0 0.0
2014-Jul-25 16:33N 35°36' E 140°07'0 0.0
2014-Jul-25 15:34N 35°36' E 140°07'0 0.0
2014-Jul-25 14:33N 35°36' E 140°07'0 0.0
2014-Jul-25 13:33N 35°36' E 140°07'0 0.0
2014-Jul-25 12:34N 35°36' E 140°07'0 0.0
2014-Jul-25 11:33N 35°36' E 140°07'0 0.0
2014-Jul-25 10:34N 35°36' E 140°07'0 0.0
2014-Jul-25 09:33N 35°36' E 140°07'0 0.0
2014-Jul-25 08:33N 35°36' E 140°07'0 0.1
2014-Jul-25 07:33N 35°36' E 140°07'1 0.7
2014-Jul-25 06:34N 35°35' E 140°06'6 5.6
2014-Jul-25 05:34N 35°33' E 139°60'0 0.2
2014-Jul-25 04:33N 35°33' E 139°60'6 6.2
2014-Jul-25 03:33N 35°36' E 140°07'0 0.0
2014-Jul-25 02:33N 35°36' E 140°07'0 0.0
2014-Jul-25 01:33N 35°36' E 140°07'0 0.0
2014-Jul-25 00:33N 35°36' E 140°07'0 0.0
2014-Jul-24 23:33N 35°36' E 140°07'0 0.0
2014-Jul-24 22:33N 35°36' E 140°07'0 0.0
2014-Jul-24 21:33N 35°36' E 140°07'0 0.0
2014-Jul-24 20:33N 35°36' E 140°07'0 0.0
2014-Jul-24 19:34N 35°36' E 140°07'0 0.0
2014-Jul-24 18:33N 35°36' E 140°07'0 0.0
2014-Jul-24 17:34N 35°36' E 140°07'0 0.0
2014-Jul-24 16:33N 35°36' E 140°07'0 0.0
2014-Jul-24 15:34N 35°36' E 140°07'0 0.0
2014-Jul-24 14:33N 35°36' E 140°07'0 0.0
2014-Jul-24 13:33N 35°36' E 140°07'0 0.0
2014-Jul-24 12:33N 35°36' E 140°07'0 0.0
2014-Jul-24 11:34N 35°36' E 140°07'0 0.0
2014-Jul-24 10:33N 35°36' E 140°07'0 0.0
2014-Jul-24 09:33N 35°36' E 140°07'0 0.0
2014-Jul-24 08:33N 35°36' E 140°07'0 0.0
2014-Jul-24 07:33N 35°36' E 140°07'0 0.0
2014-Jul-24 06:33N 35°36' E 140°07'0 0.0
2014-Jul-24 05:33N 35°36' E 140°07'0 0.0
2014-Jul-24 04:33N 35°36' E 140°07'0 0.0
2014-Jul-24 03:33N 35°36' E 140°07'0 0.0
2014-Jul-24 02:33N 35°36' E 140°07'3 3.2
2014-Jul-24 01:33N 35°34' E 140°04'6 5.7
2014-Jul-24 00:33N 35°29' E 140°00'3 2.6
2014-Jul-23 23:33N 35°31' E 140°02'6 6.1
2014-Jul-23 22:33N 35°36' E 140°07'0 0.0
2014-Jul-23 21:33N 35°36' E 140°07'0 0.0
2014-Jul-23 20:33N 35°36' E 140°07'0 0.0
2014-Jul-23 19:33N 35°36' E 140°07'0 0.0
2014-Jul-23 18:33N 35°36' E 140°07'0 0.0
2014-Jul-23 17:33N 35°36' E 140°07'0 0.0
2014-Jul-23 16:33N 35°36' E 140°07'0 0.0
2014-Jul-23 15:33N 35°36' E 140°07'0 0.0
2014-Jul-23 14:34N 35°36' E 140°07'0 0.0
2014-Jul-23 13:33N 35°36' E 140°07'0 0.0
2014-Jul-23 12:33N 35°36' E 140°07'0 0.0
2014-Jul-23 11:34N 35°36' E 140°07'0 0.0
2014-Jul-23 10:33N 35°36' E 140°07'0 0.0
2014-Jul-23 09:33N 35°36' E 140°07'3 2.6
2014-Jul-23 08:33N 35°33' E 140°06'3 2.6
2014-Jul-23 07:33N 35°33' E 140°03'1 0.6
2014-Jul-23 06:33N 35°32' E 140°03'1 0.5
2014-Jul-23 05:33N 35°32' E 140°02'0 0.0
2014-Jul-23 04:33N 35°32' E 140°02'0 0.0
2014-Jul-23 03:33N 35°32' E 140°02'1 0.9
2014-Jul-23 02:33N 35°31' E 140°02'1 1.0
2014-Jul-23 01:33N 35°31' E 140°01'1 1.0
2014-Jul-23 00:33N 35°31' E 140°02'6 6.1
2014-Jul-22 23:32N 35°36' E 140°07'0 0.0
2014-Jul-22 22:33N 35°36' E 140°07'0 0.0
2014-Jul-22 21:33N 35°36' E 140°07'0 0.0
2014-Jul-22 20:33N 35°36' E 140°07'0 0.0
2014-Jul-22 19:33N 35°36' E 140°07'0 0.0
2014-Jul-22 18:33N 35°36' E 140°07'0 0.0
2014-Jul-22 17:34N 35°36' E 140°07'0 0.0
2014-Jul-22 16:33N 35°36' E 140°07'0 0.0
2014-Jul-22 15:33N 35°36' E 140°07'0 0.0
2014-Jul-22 14:33N 35°36' E 140°07'0 0.0
2014-Jul-22 13:33N 35°36' E 140°07'0 0.0
2014-Jul-22 12:34N 35°36' E 140°07'0 0.0
2014-Jul-22 11:33N 35°36' E 140°07'0 0.0
2014-Jul-22 10:33N 35°36' E 140°07'0 0.0
2014-Jul-22 09:33N 35°36' E 140°07'0 0.0
2014-Jul-22 08:33N 35°36' E 140°07'0 0.0
2014-Jul-22 07:33N 35°36' E 140°07'1 0.9
2014-Jul-22 06:33N 35°35' E 140°06'2 1.8
2014-Jul-22 05:33N 35°35' E 140°04'7 7.3
2014-Jul-22 04:34N 35°32' E 139°56'7 7.2
2014-Jul-22 03:33N 35°35' E 140°04'2 2.2
2014-Jul-22 02:33N 35°36' E 140°07'0 0.0
2014-Jul-22 01:33N 35°36' E 140°07'0 0.0
2014-Jul-22 00:33N 35°36' E 140°07'0 0.0
2014-Jul-21 23:33N 35°36' E 140°07'1 0.9
2014-Jul-21 22:34N 35°36' E 140°06'5 4.6
2014-Jul-21 21:33N 35°34' E 140°01'1 0.8
2014-Jul-21 20:33N 35°33' E 140°00'313.1
2014-Jul-21 20:18N 35°35' E 140°03'3 4.0
2014-Jul-21 19:33N 35°36' E 140°07'0 0.0
2014-Jul-21 18:34N 35°36' E 140°07'0 0.0
2014-Jul-21 17:34N 35°36' E 140°07'0 0.0
2014-Jul-21 16:33N 35°36' E 140°07'0 0.0
2014-Jul-21 15:33N 35°36' E 140°07'0 0.0
2014-Jul-21 14:33N 35°36' E 140°07'0 0.0
2014-Jul-21 13:33N 35°36' E 140°07'0 0.0
2014-Jul-21 12:33N 35°36' E 140°07'0 0.0
2014-Jul-21 11:34N 35°36' E 140°07'0 0.0
2014-Jul-21 10:33N 35°36' E 140°07'0 0.0
2014-Jul-21 09:33N 35°36' E 140°07'0 0.0
2014-Jul-21 08:33N 35°36' E 140°07'0 0.0
2014-Jul-21 07:33N 35°36' E 140°07'0 0.0
2014-Jul-21 06:33N 35°36' E 140°07'  
Track history (hours):
 
Tides and Currents Weather Stations Pressure Air Temp Water Temp Dewpoint Dewpoint Depression Visibility Wind Speed Wind Dir Waves Ship Positions

Kitanomaru

Last reported at 2014-Jul-31 06:32 UTC. Time now 2014-Jul-31 07:25 UTC.
Position N 35°36' E 140°07'.

Length 39 m; draft 4 m.

Type: Tug. MMSI: 431000773.

Date/timePositionNaut miles runAvg speedWind from/ knotsBaromVisibWave heightAir tempDewpointWater temp
2014-Jul-31 06:32N 35°36' E 140°07'0 0.0
2014-Jul-31 05:33N 35°36' E 140°07'1 1.3
2014-Jul-31 04:33N 35°36' E 140°05'1 0.6
2014-Jul-31 03:33N 35°36' E 140°05'1 1.4
2014-Jul-31 02:34N 35°35' E 140°05'1 1.5
2014-Jul-31 01:33N 35°34' E 140°03'6 5.6
2014-Jul-31 00:33N 35°29' E 140°00'6 5.5
2014-Jul-30 23:34N 35°32' E 140°05'5 5.0
2014-Jul-30 22:33N 35°31' E 139°60'3 3.4
2014-Jul-30 21:33N 35°33' E 140°02'4 4.5
2014-Jul-30 20:33N 35°36' E 140°07'0 0.0
2014-Jul-30 19:33N 35°36' E 140°07'0 0.0
2014-Jul-30 18:33N 35°36' E 140°07'0 0.0
2014-Jul-30 17:34N 35°36' E 140°07'0 0.0
2014-Jul-30 16:34N 35°36' E 140°07'0 0.0
2014-Jul-30 15:33N 35°36' E 140°07'0 0.0
2014-Jul-30 14:33N 35°36' E 140°07'0 0.0
2014-Jul-30 13:33N 35°36' E 140°07'0 0.0
2014-Jul-30 12:33N 35°36' E 140°07'0 0.0
2014-Jul-30 11:33N 35°36' E 140°07'0 0.0
2014-Jul-30 10:33N 35°36' E 140°07'0 0.0
2014-Jul-30 09:33N 35°36' E 140°07'0 0.0
2014-Jul-30 08:33N 35°36' E 140°07'0 0.0
2014-Jul-30 07:33N 35°36' E 140°07'1 0.8
2014-Jul-30 06:33N 35°35' E 140°06'0 0.3
2014-Jul-30 05:33N 35°35' E 140°06'2 1.9
2014-Jul-30 04:33N 35°35' E 140°04'6 6.1
2014-Jul-30 03:33N 35°32' E 139°58'1 1.0
2014-Jul-30 02:33N 35°32' E 139°56'9 9.0
2014-Jul-30 01:34N 35°36' E 140°07'0 0.2
2014-Jul-30 00:33N 35°36' E 140°07'0 0.0
2014-Jul-29 23:33N 35°36' E 140°07'0 0.0
2014-Jul-29 22:34N 35°36' E 140°07'0 0.0
2014-Jul-29 21:33N 35°36' E 140°07'0 0.0
2014-Jul-29 20:33N 35°36' E 140°07'0 0.0
2014-Jul-29 19:33N 35°36' E 140°07'0 0.0
2014-Jul-29 18:33N 35°36' E 140°07'0 0.0
2014-Jul-29 17:33N 35°36' E 140°07'0 0.0
2014-Jul-29 16:33N 35°36' E 140°07'0 0.0
2014-Jul-29 15:34N 35°36' E 140°07'0 0.0
2014-Jul-29 14:33N 35°36' E 140°07'0 0.0
2014-Jul-29 13:34N 35°36' E 140°07'0 0.0
2014-Jul-29 12:33N 35°36' E 140°07'0 0.0
2014-Jul-29 11:33N 35°36' E 140°07'0 0.0
2014-Jul-29 10:33N 35°36' E 140°07'0 0.0
2014-Jul-29 09:33N 35°36' E 140°07'0 0.0
2014-Jul-29 08:33N 35°36' E 140°07'0 0.0
2014-Jul-29 07:33N 35°36' E 140°07'1 1.2
2014-Jul-29 06:33N 35°36' E 140°05'10 9.9
2014-Jul-29 05:33N 35°28' E 139°58'0 0.0
2014-Jul-29 04:33N 35°28' E 139°58'2 2.1
2014-Jul-29 03:34N 35°30' E 139°56'5 4.7
2014-Jul-29 02:33N 35°33' E 140°00'6 6.1
2014-Jul-29 01:33N 35°36' E 140°07'0 0.0
2014-Jul-29 00:33N 35°36' E 140°07'0 0.0
2014-Jul-28 23:33N 35°36' E 140°07'2 1.6
2014-Jul-28 22:33N 35°36' E 140°05'1 1.4
2014-Jul-28 21:33N 35°35' E 140°04'0 0.0
2014-Jul-28 20:33N 35°35' E 140°04'2 2.0
2014-Jul-28 19:33N 35°36' E 140°07'0 0.0
2014-Jul-28 18:33N 35°36' E 140°07'0 0.0
2014-Jul-28 17:33N 35°36' E 140°07'0 0.0
2014-Jul-28 16:33N 35°36' E 140°07'0 0.0
2014-Jul-28 15:33N 35°36' E 140°07'0 0.0
2014-Jul-28 14:33N 35°36' E 140°07'0 0.0
2014-Jul-28 13:33N 35°36' E 140°07'0 0.0
2014-Jul-28 12:33N 35°36' E 140°07'0 0.0
2014-Jul-28 11:33N 35°36' E 140°07'0 0.0
2014-Jul-28 10:33N 35°36' E 140°07'0 0.0
2014-Jul-28 09:33N 35°36' E 140°07'0 0.0
2014-Jul-28 08:33N 35°36' E 140°07'5 4.8
2014-Jul-28 07:34N 35°32' E 140°03'5 5.1
2014-Jul-28 06:33N 35°32' E 139°57'2 2.4
2014-Jul-28 05:33N 35°29' E 139°58'1 1.0
2014-Jul-28 04:33N 35°28' E 139°58'3 2.7
2014-Jul-28 03:33N 35°30' E 139°55'6 5.5
2014-Jul-28 02:33N 35°33' E 140°00'6 6.1
2014-Jul-28 01:33N 35°36' E 140°07'0 0.0
2014-Jul-27 06:31N 35°36' E 140°07'0 0.0
2014-Jul-27 05:34N 35°36' E 140°07'0 0.0
2014-Jul-27 04:33N 35°36' E 140°07'0 0.0
2014-Jul-27 03:33N 35°36' E 140°07'0 0.0
2014-Jul-27 02:33N 35°36' E 140°07'0 0.0
2014-Jul-27 01:33N 35°36' E 140°07'0 0.0
2014-Jul-27 00:33N 35°36' E 140°07'0 0.0
2014-Jul-26 23:33N 35°36' E 140°07'0 0.0
2014-Jul-26 22:33N 35°36' E 140°07'0 0.0
2014-Jul-26 21:33N 35°36' E 140°07'0 0.0
2014-Jul-26 20:33N 35°36' E 140°07'0 0.0
2014-Jul-26 19:33N 35°36' E 140°07'0 0.0
2014-Jul-26 18:33N 35°36' E 140°07'0 0.0
2014-Jul-26 17:33N 35°36' E 140°07'0 0.0
2014-Jul-26 16:33N 35°36' E 140°07'0 0.0
2014-Jul-26 15:33N 35°36' E 140°07'0 0.0
2014-Jul-26 14:33N 35°36' E 140°07'0 0.0
2014-Jul-26 13:33N 35°36' E 140°07'1 1.1
2014-Jul-26 12:33N 35°36' E 140°06'0 0.1
2014-Jul-26 11:33N 35°36' E 140°06'0 0.2
2014-Jul-26 10:33N 35°36' E 140°06'1 0.8
2014-Jul-26 09:33N 35°36' E 140°07'0 0.0
2014-Jul-26 08:34N 35°36' E 140°07'0 0.0
2014-Jul-26 07:33N 35°36' E 140°07'0 0.0
2014-Jul-26 06:33N 35°36' E 140°07'0 0.0
2014-Jul-26 05:33N 35°36' E 140°07'1 0.9
2014-Jul-26 04:33N 35°35' E 140°06'1 0.9
2014-Jul-26 03:33N 35°36' E 140°07'0 0.0
2014-Jul-26 02:33N 35°36' E 140°07'1 1.1
2014-Jul-26 01:34N 35°35' E 140°06'7 7.3
2014-Jul-26 00:33N 35°34' E 139°57'7 6.8
2014-Jul-25 23:34N 35°36' E 140°05'1 0.7
2014-Jul-25 22:33N 35°36' E 140°05'5 4.8
2014-Jul-25 21:33N 35°34' E 140°00'1 1.3
2014-Jul-25 20:33N 35°34' E 140°02'5 4.5
2014-Jul-25 19:33N 35°36' E 140°07'0 0.0
2014-Jul-25 18:33N 35°36' E 140°07'0 0.0
2014-Jul-25 17:33N 35°36' E 140°07'0 0.0
2014-Jul-25 16:33N 35°36' E 140°07'0 0.0
2014-Jul-25 15:34N 35°36' E 140°07'0 0.0
2014-Jul-25 14:33N 35°36' E 140°07'0 0.0
2014-Jul-25 13:33N 35°36' E 140°07'0 0.0
2014-Jul-25 12:34N 35°36' E 140°07'0 0.0
2014-Jul-25 11:33N 35°36' E 140°07'0 0.0
2014-Jul-25 10:34N 35°36' E 140°07'0 0.0
2014-Jul-25 09:33N 35°36' E 140°07'0 0.0
2014-Jul-25 08:33N 35°36' E 140°07'0 0.1
2014-Jul-25 07:33N 35°36' E 140°07'1 0.7
2014-Jul-25 06:34N 35°35' E 140°06'6 5.6
2014-Jul-25 05:34N 35°33' E 139°60'0 0.2
2014-Jul-25 04:33N 35°33' E 139°60'6 6.2
2014-Jul-25 03:33N 35°36' E 140°07'0 0.0
2014-Jul-25 02:33N 35°36' E 140°07'0 0.0
2014-Jul-25 01:33N 35°36' E 140°07'0 0.0
2014-Jul-25 00:33N 35°36' E 140°07'0 0.0
2014-Jul-24 23:33N 35°36' E 140°07'0 0.0
2014-Jul-24 22:33N 35°36' E 140°07'0 0.0
2014-Jul-24 21:33N 35°36' E 140°07'0 0.0
2014-Jul-24 20:33N 35°36' E 140°07'0 0.0
2014-Jul-24 19:34N 35°36' E 140°07'0 0.0
2014-Jul-24 18:33N 35°36' E 140°07'0 0.0
2014-Jul-24 17:34N 35°36' E 140°07'0 0.0
2014-Jul-24 16:33N 35°36' E 140°07'0 0.0
2014-Jul-24 15:34N 35°36' E 140°07'0 0.0
2014-Jul-24 14:33N 35°36' E 140°07'0 0.0
2014-Jul-24 13:33N 35°36' E 140°07'0 0.0
2014-Jul-24 12:33N 35°36' E 140°07'0 0.0
2014-Jul-24 11:34N 35°36' E 140°07'0 0.0
2014-Jul-24 10:33N 35°36' E 140°07'0 0.0
2014-Jul-24 09:33N 35°36' E 140°07'0 0.0
2014-Jul-24 08:33N 35°36' E 140°07'0 0.0
2014-Jul-24 07:33N 35°36' E 140°07'0 0.0
2014-Jul-24 06:33N 35°36' E 140°07'0 0.0
2014-Jul-24 05:33N 35°36' E 140°07'0 0.0
2014-Jul-24 04:33N 35°36' E 140°07'0 0.0
2014-Jul-24 03:33N 35°36' E 140°07'0 0.0
2014-Jul-24 02:33N 35°36' E 140°07'3 3.2
2014-Jul-24 01:33N 35°34' E 140°04'6 5.7
2014-Jul-24 00:33N 35°29' E 140°00'3 2.6
2014-Jul-23 23:33N 35°31' E 140°02'6 6.1
2014-Jul-23 22:33N 35°36' E 140°07'0 0.0
2014-Jul-23 21:33N 35°36' E 140°07'0 0.0
2014-Jul-23 20:33N 35°36' E 140°07'0 0.0
2014-Jul-23 19:33N 35°36' E 140°07'0 0.0
2014-Jul-23 18:33N 35°36' E 140°07'0 0.0
2014-Jul-23 17:33N 35°36' E 140°07'0 0.0
2014-Jul-23 16:33N 35°36' E 140°07'0 0.0
2014-Jul-23 15:33N 35°36' E 140°07'0 0.0
2014-Jul-23 14:34N 35°36' E 140°07'0 0.0
2014-Jul-23 13:33N 35°36' E 140°07'0 0.0
2014-Jul-23 12:33N 35°36' E 140°07'0 0.0
2014-Jul-23 11:34N 35°36' E 140°07'0 0.0
2014-Jul-23 10:33N 35°36' E 140°07'0 0.0
2014-Jul-23 09:33N 35°36' E 140°07'3 2.6
2014-Jul-23 08:33N 35°33' E 140°06'3 2.6
2014-Jul-23 07:33N 35°33' E 140°03'1 0.6
2014-Jul-23 06:33N 35°32' E 140°03'1 0.5
2014-Jul-23 05:33N 35°32' E 140°02'0 0.0
2014-Jul-23 04:33N 35°32' E 140°02'0 0.0
2014-Jul-23 03:33N 35°32' E 140°02'1 0.9
2014-Jul-23 02:33N 35°31' E 140°02'1 1.0
2014-Jul-23 01:33N 35°31' E 140°01'1 1.0
2014-Jul-23 00:33N 35°31' E 140°02'6 6.1
2014-Jul-22 23:32N 35°36' E 140°07'0 0.0
2014-Jul-22 22:33N 35°36' E 140°07'0 0.0
2014-Jul-22 21:33N 35°36' E 140°07'0 0.0
2014-Jul-22 20:33N 35°36' E 140°07'0 0.0
2014-Jul-22 19:33N 35°36' E 140°07'0 0.0
2014-Jul-22 18:33N 35°36' E 140°07'0 0.0
2014-Jul-22 17:34N 35°36' E 140°07'0 0.0
2014-Jul-22 16:33N 35°36' E 140°07'0 0.0
2014-Jul-22 15:33N 35°36' E 140°07'0 0.0
2014-Jul-22 14:33N 35°36' E 140°07'0 0.0
2014-Jul-22 13:33N 35°36' E 140°07'0 0.0
2014-Jul-22 12:34N 35°36' E 140°07'0 0.0
2014-Jul-22 11:33N 35°36' E 140°07'0 0.0
2014-Jul-22 10:33N 35°36' E 140°07'0 0.0
2014-Jul-22 09:33N 35°36' E 140°07'0 0.0
2014-Jul-22 08:33N 35°36' E 140°07'0 0.0
2014-Jul-22 07:33N 35°36' E 140°07'1 0.9
2014-Jul-22 06:33N 35°35' E 140°06'2 1.8
2014-Jul-22 05:33N 35°35' E 140°04'7 7.3
2014-Jul-22 04:34N 35°32' E 139°56'7 7.2
2014-Jul-22 03:33N 35°35' E 140°04'2 2.2
2014-Jul-22 02:33N 35°36' E 140°07'0 0.0
2014-Jul-22 01:33N 35°36' E 140°07'0 0.0
2014-Jul-22 00:33N 35°36' E 140°07'0 0.0
2014-Jul-21 23:33N 35°36' E 140°07'1 0.9
2014-Jul-21 22:34N 35°36' E 140°06'5 4.6
2014-Jul-21 21:33N 35°34' E 140°01'1 0.8
2014-Jul-21 20:33N 35°33' E 140°00'313.1
2014-Jul-21 20:18N 35°35' E 140°03'3 4.0
2014-Jul-21 19:33N 35°36' E 140°07'0 0.0
2014-Jul-21 18:34N 35°36' E 140°07'0 0.0
2014-Jul-21 17:34N 35°36' E 140°07'0 0.0
2014-Jul-21 16:33N 35°36' E 140°07'0 0.0
2014-Jul-21 15:33N 35°36' E 140°07'0 0.0
2014-Jul-21 14:33N 35°36' E 140°07'0 0.0
2014-Jul-21 13:33N 35°36' E 140°07'0 0.0
2014-Jul-21 12:33N 35°36' E 140°07'0 0.0
2014-Jul-21 11:34N 35°36' E 140°07'0 0.0
2014-Jul-21 10:33N 35°36' E 140°07'0 0.0
2014-Jul-21 09:33N 35°36' E 140°07'0 0.0
2014-Jul-21 08:33N 35°36' E 140°07'0 0.0
2014-Jul-21 07:33N 35°36' E 140°07'0 0.0
2014-Jul-21 06:33N 35°36' E 140°07'  

Dump ship's entire track history